Time;durP1;ratioP1;P1;durP2;ratioP2;P2;SDS_P1;SDS_P2;PMS_P1;PMS_P2;Temp;Humidity;BMP_temperature;BMP_pressure;BME280_temperature;BME280_humidity;BME280_pressure;Samples;Min_cycle;Max_cycle;Signal;HPM_P1;HPM_P2
2023/11/18 00:01:24;;;;;;;0.30;0.30;;;;;;;11.85;100.00;99727.50;5054849;28;20104;-84
2023/11/18 00:03:50;;;;;;;0.38;0.38;;;;;;;11.86;100.00;99731.88;5020765;28;20039;-85
2023/11/18 00:06:16;;;;;;;0.32;0.32;;;;;;;11.88;100.00;99735.19;5019844;28;20112;-84
2023/11/18 00:08:43;;;;;;;0.40;0.40;;;;;;;11.94;100.00;99733.53;5036788;28;20060;-84
2023/11/18 00:11:10;;;;;;;0.30;0.30;;;;;;;11.95;100.00;99737.06;5036917;28;20025;-83
2023/11/18 00:13:38;;;;;;;0.40;0.40;;;;;;;11.96;100.00;99733.31;5053443;28;20071;-83
2023/11/18 00:16:06;;;;;;;0.30;0.30;;;;;;;11.97;100.00;99726.91;5037124;28;20037;-83
2023/11/18 00:18:31;;;;;;;0.30;0.30;;;;;;;11.98;100.00;99734.75;5036686;28;20036;-83
2023/11/18 00:20:58;;;;;;;0.30;0.30;;;;;;;11.97;100.00;99726.91;5053321;28;20035;-84
2023/11/18 00:23:24;;;;;;;0.40;0.40;;;;;;;12.00;100.00;99724.59;5053018;28;20025;-83
2023/11/18 00:25:49;;;;;;;0.30;0.30;;;;;;;12.03;100.00;99731.44;5053166;28;20380;-83
2023/11/18 00:28:15;;;;;;;0.35;0.35;;;;;;;12.05;100.00;99732.06;5053317;28;20112;-83
2023/11/18 00:30:40;;;;;;;0.40;0.40;;;;;;;12.01;100.00;99725.41;5036603;28;20036;-83
2023/11/18 00:33:06;;;;;;;0.40;0.40;;;;;;;12.07;100.00;99727.28;5036315;28;20040;-83
2023/11/18 00:35:33;;;;;;;0.30;0.30;;;;;;;12.08;100.00;99718.16;5020167;28;20091;-83
2023/11/18 00:37:59;;;;;;;0.30;0.30;;;;;;;12.10;100.00;99718.78;5036756;28;20098;-83
2023/11/18 00:40:25;;;;;;;0.30;0.30;;;;;;;12.09;100.00;99711.72;5053164;28;20120;-83
2023/11/18 00:42:51;;;;;;;0.30;0.30;;;;;;;12.11;100.00;99704.25;5020010;28;20429;-83
2023/11/18 00:45:18;;;;;;;0.38;0.38;;;;;;;12.15;100.00;99710.06;5053702;28;20147;-83
2023/11/18 00:47:43;;;;;;;0.40;0.40;;;;;;;12.15;100.00;99713.59;5053016;28;20060;-83
2023/11/18 00:50:09;;;;;;;0.40;0.40;;;;;;;12.09;100.00;99703.63;5036053;28;20064;-83
2023/11/18 00:52:38;;;;;;;0.30;0.30;;;;;;;12.19;100.00;99709.41;5036234;28;20078;-83
2023/11/18 00:55:07;;;;;;;0.28;0.28;;;;;;;12.22;100.00;99708.16;5020407;28;20076;-83
2023/11/18 00:57:33;;;;;;;0.40;0.40;;;;;;;12.22;100.00;99702.78;5020163;28;20395;-84
2023/11/18 00:59:58;;;;;;;0.40;0.40;;;;;;;12.24;100.00;99706.09;5052673;28;20460;-83
2023/11/18 01:02:24;;;;;;;0.30;0.30;;;;;;;12.21;100.00;99696.56;5052355;28;20115;-84
2023/11/18 01:04:50;;;;;;;0.32;0.32;;;;;;;12.23;100.00;99694.50;5036060;28;20467;-83
2023/11/18 01:07:16;;;;;;;0.40;0.40;;;;;;;12.24;100.00;99687.22;5035665;28;20557;-83
2023/11/18 01:09:42;;;;;;;0.40;0.40;;;;;;;12.28;100.00;99685.78;5052320;28;20059;-84
2023/11/18 01:12:09;;;;;;;0.40;0.40;;;;;;;12.28;100.00;99683.91;5035780;28;20123;-83
2023/11/18 01:14:37;;;;;;;0.30;0.30;;;;;;;12.28;100.00;99686.59;5035898;28;20467;-83
2023/11/18 01:17:04;;;;;;;0.30;0.30;;;;;;;12.29;100.00;99674.75;5020123;28;20128;-83
2023/11/18 01:19:30;;;;;;;0.30;0.30;;;;;;;12.30;100.00;99678.28;5054184;28;20028;-83
2023/11/18 01:21:56;;;;;;;0.40;0.40;;;;;;;12.37;100.00;99672.88;5054175;28;20081;-83
2023/11/18 01:24:21;;;;;;;0.30;0.30;;;;;;;12.38;100.00;99663.72;5052521;28;20383;-84
2023/11/18 01:26:47;;;;;;;0.35;0.35;;;;;;;12.36;100.00;99677.44;5036247;28;20041;-85
2023/11/18 01:29:13;;;;;;;0.30;0.30;;;;;;;12.35;100.00;99667.69;5036495;28;20477;-84
2023/11/18 01:31:41;;;;;;;0.28;0.28;;;;;;;12.39;100.00;99665.41;5019836;28;20434;-84
2023/11/18 01:34:07;;;;;;;0.40;0.40;;;;;;;12.44;100.00;99657.50;5052496;28;20068;-84
2023/11/18 01:36:33;;;;;;;0.30;0.30;;;;;;;12.50;100.00;99667.44;5052385;28;20029;-84
2023/11/18 01:38:58;;;;;;;0.40;0.40;;;;;;;12.50;100.00;99662.84;5053316;28;20025;-84
2023/11/18 01:41:25;;;;;;;0.30;0.30;;;;;;;12.54;100.00;99664.09;5053451;28;20032;-84
2023/11/18 01:43:50;;;;;;;0.30;0.30;;;;;;;12.56;100.00;99681.91;5053494;28;20041;-84
2023/11/18 01:46:17;;;;;;;0.30;0.30;;;;;;;12.54;100.00;99674.88;5052257;28;20380;-84
2023/11/18 01:48:42;;;;;;;0.30;0.30;;;;;;;12.56;100.00;99677.34;5035306;28;20047;-84
2023/11/18 01:51:11;;;;;;;0.30;0.30;;;;;;;12.55;100.00;99689.19;5035517;28;20467;-84
2023/11/18 01:53:39;;;;;;;0.30;0.30;;;;;;;12.56;100.00;99692.69;5019726;28;20032;-84
2023/11/18 01:56:06;;;;;;;0.32;0.32;;;;;;;12.55;100.00;99681.09;5052122;28;20039;-84
2023/11/18 01:58:35;;;;;;;0.32;0.32;;;;;;;12.54;100.00;99674.03;5051736;28;20021;-84
2023/11/18 02:01:03;;;;;;;0.30;0.30;;;;;;;12.51;100.00;99675.28;5051690;28;20087;-83
2023/11/18 02:03:30;;;;;;;0.32;0.32;;;;;;;12.51;100.00;99674.47;5052048;28;20120;-84
2023/11/18 02:05:57;;;;;;;0.30;0.30;;;;;;;12.47;100.00;99662.47;5052025;28;20029;-84
2023/11/18 02:08:23;;;;;;;0.30;0.30;;;;;;;12.50;100.00;99653.94;5035253;28;20448;-86
2023/11/18 02:10:55;;;;;;;0.30;0.30;;;;;;;12.50;100.00;99656.63;5035501;28;20037;-84
2023/11/18 02:13:29;;;;;;;0.40;0.40;;;;;;;12.48;100.00;99651.44;5035579;28;20032;-85
2023/11/18 02:15:56;;;;;;;0.30;0.30;;;;;;;12.43;100.00;99636.97;5051747;28;20029;-84
2023/11/18 02:18:25;;;;;;;0.40;0.40;;;;;;;12.46;100.00;99650.00;5035311;28;20068;-84
2023/11/18 02:20:53;;;;;;;0.40;0.40;;;;;;;12.44;100.00;99642.16;5035558;28;20076;-84
2023/11/18 02:23:21;;;;;;;0.40;0.40;;;;;;;12.49;100.00;99647.72;5051902;28;20040;-84
2023/11/18 02:25:48;;;;;;;0.30;0.30;;;;;;;12.48;100.00;99658.72;5051471;28;20535;-84
2023/11/18 02:28:13;;;;;;;0.40;0.40;;;;;;;12.48;100.00;99646.06;5035516;28;20118;-84
2023/11/18 02:30:40;;;;;;;0.30;0.30;;;;;;;12.48;100.00;99642.53;5038971;28;20452;-84
2023/11/18 02:33:26;;;;;;;0.40;0.40;;;;;;;12.50;100.00;99643.16;5056318;28;20029;-84
2023/11/18 02:35:56;;;;;;;0.30;0.30;;;;;;;12.49;100.00;99633.41;5038554;28;20064;-84
2023/11/18 02:38:38;;;;;;;0.40;0.40;;;;;;;12.48;100.00;99621.78;5039364;28;20041;-84
2023/11/18 02:41:08;;;;;;;0.40;0.40;;;;;;;12.49;100.00;99622.59;5020231;28;20353;-84
2023/11/18 02:43:37;;;;;;;0.35;0.35;;;;;;;12.51;100.00;99621.34;5039005;28;20094;-84
2023/11/18 02:46:04;;;;;;;0.30;0.30;;;;;;;12.50;100.00;99610.81;5038869;28;20048;-84
2023/11/18 02:48:32;;;;;;;0.40;0.40;;;;;;;12.50;100.00;99617.00;5022093;28;20032;-84
2023/11/18 02:50:59;;;;;;;0.30;0.30;;;;;;;12.50;100.00;99617.00;5054669;28;20021;-84
2023/11/18 02:53:25;;;;;;;0.30;0.30;;;;;;;12.50;100.00;99605.41;5038543;28;20033;-84
2023/11/18 02:55:54;;;;;;;0.30;0.30;;;;;;;12.49;100.00;99604.59;5038125;28;20492;-83
2023/11/18 02:58:20;;;;;;;0.38;0.38;;;;;;;12.48;100.00;99604.78;5038480;28;20025;-84
2023/11/18 03:00:46;;;;;;;0.40;0.40;;;;;;;12.45;100.00;99603.34;5056017;28;20036;-84
2023/11/18 03:03:14;;;;;;;0.30;0.30;;;;;;;12.41;100.00;99606.69;5038394;28;20036;-83
2023/11/18 03:05:39;;;;;;;0.30;0.30;;;;;;;12.36;100.00;99601.97;5054900;28;20032;-84
2023/11/18 03:08:06;;;;;;;0.30;0.30;;;;;;;12.32;100.00;99593.47;5055702;28;20028;-84
2023/11/18 03:10:34;;;;;;;0.30;0.30;;;;;;;12.30;100.00;99595.56;5038723;28;20114;-84
2023/11/18 03:13:01;;;;;;;0.40;0.40;;;;;;;12.20;100.00;99581.72;5054496;28;20036;-84
2023/11/18 03:15:27;;;;;;;0.60;0.60;;;;;;;12.16;100.00;99590.47;5037597;28;20376;-84
2023/11/18 03:17:54;;;;;;;0.30;0.30;;;;;;;12.16;100.00;99583.19;5038068;28;20391;-84
2023/11/18 03:20:22;;;;;;;0.38;0.38;;;;;;;12.08;100.00;99561.88;5038140;28;20082;-83
2023/11/18 03:22:49;;;;;;;0.40;0.40;;;;;;;12.16;100.00;99569.72;5054730;28;20029;-84
2023/11/18 03:25:16;;;;;;;0.43;0.43;;;;;;;12.14;100.00;99570.97;5037735;28;20048;-84
2023/11/18 03:27:43;;;;;;;0.40;0.40;;;;;;;12.11;100.00;99558.75;5021235;28;20498;-83
2023/11/18 03:30:09;;;;;;;0.30;0.30;;;;;;;12.09;100.00;99563.53;5054355;28;20555;-84
2023/11/18 03:32:35;;;;;;;0.40;0.40;;;;;;;12.02;100.00;99565.44;5038765;28;20395;-84
2023/11/18 03:35:03;;;;;;;0.30;0.30;;;;;;;11.97;100.00;99559.88;5057090;28;20029;-83
2023/11/18 03:37:28;;;;;;;0.35;0.35;;;;;;;11.86;100.00;99559.50;5021656;28;20132;-84
2023/11/18 03:39:54;;;;;;;0.40;0.40;;;;;;;11.87;100.00;99555.75;5052826;28;20121;-83
2023/11/18 03:42:19;;;;;;;0.35;0.35;;;;;;;11.90;100.00;99559.06;5037531;28;20387;-84
2023/11/18 03:44:47;;;;;;;0.40;0.40;;;;;;;11.93;100.00;99559.44;5037320;28;20044;-84
2023/11/18 03:47:14;;;;;;;0.40;0.40;;;;;;;11.94;100.00;99557.63;5021469;28;20094;-84
2023/11/18 03:49:41;;;;;;;0.50;0.50;;;;;;;11.96;100.00;99558.19;5021264;28;20037;-84
2023/11/18 03:52:06;;;;;;;0.45;0.45;;;;;;;12.01;100.00;99548.47;5053846;28;20053;-84
2023/11/18 03:54:32;;;;;;;0.30;0.30;;;;;;;12.04;100.00;99542.63;5054801;28;20383;-84
2023/11/18 03:56:59;;;;;;;0.30;0.30;;;;;;;12.04;100.00;99537.25;5053799;28;20052;-84
2023/11/18 03:59:25;;;;;;;0.30;0.30;;;;;;;12.08;100.00;99540.34;5054824;28;20040;-84
2023/11/18 04:01:51;;;;;;;0.40;0.40;;;;;;;12.07;100.00;99536.00;5053375;28;20630;-83
2023/11/18 04:04:17;;;;;;;0.30;0.30;;;;;;;12.05;100.00;99524.59;5053580;28;20108;-84
2023/11/18 04:06:43;;;;;;;0.40;0.40;;;;;;;12.01;100.00;99517.97;5053283;28;20028;-84
2023/11/18 04:09:10;;;;;;;0.40;0.40;;;;;;;12.00;100.00;99510.94;5053580;28;20047;-84
2023/11/18 04:11:36;;;;;;;0.30;0.30;;;;;;;11.94;100.00;99485.72;5036903;28;20029;-84
2023/11/18 04:14:03;;;;;;;0.40;0.40;;;;;;;12.01;100.00;99499.13;5054627;28;20545;-84
2023/11/18 04:16:29;;;;;;;0.32;0.32;;;;;;;12.01;100.00;99491.03;5020640;28;20039;-84
2023/11/18 04:18:54;;;;;;;0.30;0.30;;;;;;;12.01;100.00;99485.66;5053276;28;20029;-84
2023/11/18 04:21:20;;;;;;;0.43;0.43;;;;;;;12.01;100.00;99489.19;5037154;28;20041;-84
2023/11/18 04:23:46;;;;;;;0.30;0.30;;;;;;;12.05;100.00;99489.56;5053275;28;20541;-84
2023/11/18 04:26:12;;;;;;;0.40;0.40;;;;;;;12.07;100.00;99474.84;5036556;28;20037;-85
2023/11/18 04:28:38;;;;;;;0.30;0.30;;;;;;;12.07;100.00;99480.25;5052900;28;20046;-84
2023/11/18 04:31:07;;;;;;;0.40;0.40;;;;;;;12.10;100.00;99482.50;5020443;28;20523;-84
2023/11/18 04:33:33;;;;;;;0.40;0.40;;;;;;;12.09;100.00;99488.09;5021066;28;20495;-84
2023/11/18 04:36:01;;;;;;;0.30;0.30;;;;;;;12.05;100.00;99500.34;5036792;28;20067;-84
2023/11/18 04:38:27;;;;;;;0.32;0.32;;;;;;;12.04;100.00;99493.28;5036516;28;20127;-84
2023/11/18 04:40:56;;;;;;;0.30;0.30;;;;;;;11.96;100.00;99489.00;5052690;28;20570;-83
2023/11/18 04:43:23;;;;;;;0.40;0.40;;;;;;;11.94;100.00;99487.56;5020429;28;20087;-84
2023/11/18 04:45:49;;;;;;;0.40;0.40;;;;;;;11.87;100.00;99487.59;5036376;28;20467;-84
2023/11/18 04:48:14;;;;;;;0.47;0.47;;;;;;;11.87;100.00;99491.13;5069211;28;20128;-84
2023/11/18 04:50:43;;;;;;;0.40;0.40;;;;;;;11.87;100.00;99488.41;5052731;28;20029;-84
2023/11/18 04:53:10;;;;;;;0.30;0.30;;;;;;;11.87;100.00;99485.72;5052087;28;20035;-84
2023/11/18 04:55:37;;;;;;;0.40;0.40;;;;;;;11.88;100.00;99494.63;5052834;28;20029;-84
2023/11/18 04:58:02;;;;;;;0.40;0.40;;;;;;;11.87;100.00;99498.38;5052700;28;20468;-84
2023/11/18 05:00:28;;;;;;;0.47;0.47;;;;;;;11.84;100.00;99496.09;5020158;28;20036;-84
2023/11/18 05:02:54;;;;;;;0.30;0.30;;;;;;;11.82;100.00;99493.59;5052577;28;20404;-84
2023/11/18 05:05:19;;;;;;;0.50;0.50;;;;;;;11.83;100.00;99500.66;5019745;28;20460;-84
2023/11/18 05:07:45;;;;;;;0.32;0.32;;;;;;;11.83;100.00;99495.25;5020136;28;20132;-83
2023/11/18 05:10:11;;;;;;;0.40;0.40;;;;;;;11.83;100.00;99495.25;5035765;28;20551;-84
2023/11/18 05:12:37;;;;;;;0.40;0.40;;;;;;;11.83;100.00;99489.06;5052393;28;20024;-84
2023/11/18 05:15:10;;;;;;;0.40;0.40;;;;;;;11.78;100.00;99486.19;5019397;28;20127;-84
2023/11/18 05:17:37;;;;;;;0.40;0.40;;;;;;;11.79;100.00;99490.50;5052328;28;20597;-84
2023/11/18 05:20:03;;;;;;;0.30;0.30;;;;;;;11.78;100.00;99495.06;5036151;28;20494;-84
2023/11/18 05:22:29;;;;;;;0.35;0.35;;;;;;;11.82;100.00;99495.47;5053776;28;20104;-85
2023/11/18 05:24:55;;;;;;;0.40;0.40;;;;;;;11.80;100.00;99495.69;5019606;28;20056;-84
2023/11/18 05:27:21;;;;;;;0.40;0.40;;;;;;;11.78;100.00;99496.94;5019423;28;20127;-84
2023/11/18 05:29:53;;;;;;;0.50;0.50;;;;;;;11.78;100.00;99486.19;5035998;28;20127;-84
2023/11/18 05:32:20;;;;;;;0.45;0.45;;;;;;;11.77;100.00;99490.72;5036325;28;20033;-84
2023/11/18 05:34:46;;;;;;;0.30;0.30;;;;;;;11.75;100.00;99487.44;5019869;28;20041;-84
2023/11/18 05:37:12;;;;;;;0.30;0.30;;;;;;;11.76;100.00;99493.63;5052489;28;20512;-84
2023/11/18 05:39:43;;;;;;;0.30;0.30;;;;;;;11.72;100.00;99487.84;5052326;28;20040;-84
2023/11/18 05:42:10;;;;;;;0.30;0.30;;;;;;;11.82;100.00;99490.91;5036340;28;20104;-84
2023/11/18 05:44:39;;;;;;;0.40;0.40;;;;;;;11.84;100.00;99479.91;5019869;28;20045;-84
2023/11/18 05:47:14;;;;;;;0.40;0.40;;;;;;;11.87;100.00;99480.34;5036257;28;20661;-84
2023/11/18 05:49:40;;;;;;;0.38;0.38;;;;;;;11.89;100.00;99472.06;5020802;28;20095;-84
2023/11/18 05:52:06;;;;;;;0.30;0.30;;;;;;;11.90;100.00;99472.88;5035418;28;20029;-84
2023/11/18 05:54:40;;;;;;;0.40;0.40;;;;;;;11.98;100.00;99469.94;5054037;28;20386;-83
2023/11/18 05:57:05;;;;;;;;;;;;;;;11.98;100.00;99469.94;5054391;28;20047;-83
2023/11/18 05:59:31;;;;;;;0.32;0.32;;;;;;;11.98;100.00;99461.84;5087012;28;20391;-84
2023/11/18 06:01:56;;;;;;;0.30;0.30;;;;;;;11.97;100.00;99455.63;5035460;28;20383;-84
2023/11/18 06:04:22;;;;;;;0.30;0.30;;;;;;;12.01;100.00;99447.94;5053919;28;20037;-84
2023/11/18 06:06:48;;;;;;;0.35;0.35;;;;;;;11.97;100.00;99438.66;5055862;28;20108;-84
2023/11/18 06:09:20;;;;;;;0.40;0.40;;;;;;;12.00;100.00;99451.69;5057039;28;20112;-85
2023/11/18 06:11:47;;;;;;;0.40;0.40;;;;;;;11.98;100.00;99445.69;5023511;28;20063;-84
2023/11/18 06:14:12;;;;;;;0.40;0.40;;;;;;;11.89;100.00;99445.13;5039043;28;20651;-84
2023/11/18 06:16:39;;;;;;;0.40;0.40;;;;;;;11.93;100.00;99450.88;5039248;28;20029;-84
2023/11/18 06:19:05;;;;;;;0.40;0.40;;;;;;;11.90;100.00;99441.38;5055777;28;20025;-84
2023/11/18 06:21:31;;;;;;;0.40;0.40;;;;;;;11.90;100.00;99429.78;5055575;28;20526;-84
2023/11/18 06:24:00;;;;;;;0.32;0.32;;;;;;;11.82;100.00;99434.34;5038958;28;20025;-84
2023/11/18 06:26:27;;;;;;;0.30;0.30;;;;;;;11.76;100.00;99435.22;5022562;28;20044;-85
2023/11/18 06:28:56;;;;;;;0.30;0.30;;;;;;;11.71;100.00;99418.06;5038940;28;20475;-84
2023/11/18 06:31:23;;;;;;;0.40;0.40;;;;;;;11.68;100.00;99424.69;5056536;28;20120;-84
2023/11/18 06:33:50;;;;;;;0.30;0.30;;;;;;;11.72;100.00;99433.97;5055456;28;20087;-84
2023/11/18 06:36:18;;;;;;;0.30;0.30;;;;;;;11.76;100.00;99442.47;5055390;28;20070;-84
2023/11/18 06:38:51;;;;;;;0.38;0.38;;;;;;;11.78;100.00;99427.75;5055084;28;20028;-84
2023/11/18 06:41:37;;;;;;;0.40;0.40;;;;;;;11.78;100.00;99427.75;5022976;28;20049;-84
2023/11/18 06:44:12;;;;;;;0.40;0.40;;;;;;;11.77;100.00;99431.47;5038915;28;20104;-84
2023/11/18 06:46:39;;;;;;;0.40;0.40;;;;;;;11.80;100.00;99424.81;5039792;28;20067;-84
2023/11/18 06:49:06;;;;;;;0.30;0.30;;;;;;;11.84;100.00;99418.78;5038795;28;20033;-84
2023/11/18 06:51:37;;;;;;;0.30;0.30;;;;;;;11.87;100.00;99422.97;5054995;28;20040;-84
2023/11/18 06:54:13;;;;;;;0.40;0.40;;;;;;;11.90;100.00;99410.91;5039629;28;20059;-86
2023/11/18 06:56:42;;;;;;;0.30;0.30;;;;;;;11.90;100.00;99406.34;5054776;28;20471;-84
2023/11/18 06:59:12;;;;;;;0.30;0.30;;;;;;;11.92;100.00;99395.38;5022114;28;20479;-85
2023/11/18 07:01:40;;;;;;;0.30;0.30;;;;;;;11.88;100.00;99401.22;5022468;28;20541;-84
2023/11/18 07:04:08;;;;;;;0.30;0.30;;;;;;;11.85;100.00;99400.75;5055129;28;20024;-84
2023/11/18 07:06:37;;;;;;;0.30;0.30;;;;;;;11.87;100.00;99404.09;5038509;28;20028;-85
2023/11/18 07:09:12;;;;;;;0.40;0.40;;;;;;;11.92;100.00;99408.84;5021409;28;20037;-84
2023/11/18 07:11:41;;;;;;;0.40;0.40;;;;;;;11.90;100.00;99406.34;5038707;28;20033;-84
2023/11/18 07:14:10;;;;;;;0.43;0.43;;;;;;;11.82;100.00;99412.78;5038209;28;20033;-84
2023/11/18 07:16:38;;;;;;;0.50;0.50;;;;;;;11.74;100.00;99409.53;5021509;28;20064;-84
2023/11/18 07:19:04;;;;;;;0.40;0.40;;;;;;;11.68;100.00;99407.72;5054159;28;20589;-84
2023/11/18 07:21:30;;;;;;;0.40;0.40;;;;;;;11.66;100.00;99405.22;5037720;28;20033;-84
2023/11/18 07:23:56;;;;;;;0.30;0.30;;;;;;;11.66;100.00;99407.94;5053928;28;20029;-85
2023/11/18 07:26:23;;;;;;;0.40;0.40;;;;;;;11.66;100.00;99408.75;5038004;28;20479;-84
2023/11/18 07:28:50;;;;;;;0.40;0.40;;;;;;;11.66;100.00;99397.16;5037955;28;20025;-84
2023/11/18 07:31:18;;;;;;;0.40;0.40;;;;;;;11.66;100.00;99407.94;5021266;28;20048;-84
2023/11/18 07:33:50;;;;;;;0.40;0.40;;;;;;;11.65;100.00;99408.97;5037579;28;20442;-84
2023/11/18 07:36:17;;;;;;;0.50;0.50;;;;;;;11.62;100.00;99415.63;5038039;28;20032;-83
2023/11/18 07:38:42;;;;;;;0.40;0.40;;;;;;;11.66;100.00;99418.69;5055048;28;20044;-84
2023/11/18 07:41:08;;;;;;;0.45;0.45;;;;;;;11.65;100.00;99411.66;5037497;28;20033;-85
2023/11/18 07:43:37;;;;;;;0.40;0.40;;;;;;;11.65;100.00;99423.25;5037490;28;20057;-84
2023/11/18 07:46:03;;;;;;;0.40;0.40;;;;;;;11.67;100.00;99409.59;5054225;28;20108;-84
2023/11/18 07:48:31;;;;;;;0.30;0.30;;;;;;;11.72;100.00;99412.44;5021268;28;20094;-84
2023/11/18 07:50:57;;;;;;;0.40;0.40;;;;;;;11.72;100.00;99417.81;5054671;28;20490;-84
2023/11/18 07:53:22;;;;;;;0.40;0.40;;;;;;;11.69;100.00;99412.06;5053634;28;20032;-84
2023/11/18 07:55:49;;;;;;;0.40;0.40;;;;;;;11.65;100.00;99417.88;5053679;28;20382;-84
2023/11/18 07:58:18;;;;;;;0.40;0.40;;;;;;;11.68;100.00;99424.69;5054613;28;20025;-84
2023/11/18 08:00:47;;;;;;;0.38;0.38;;;;;;;11.62;100.00;99407.53;5037302;28;20090;-84
2023/11/18 08:03:14;;;;;;;0.30;0.30;;;;;;;11.66;100.00;99418.69;5053846;28;20029;-84
2023/11/18 08:05:41;;;;;;;0.40;0.40;;;;;;;11.65;100.00;99415.19;5054826;28;20035;-84
2023/11/18 08:08:07;;;;;;;0.40;0.40;;;;;;;11.64;100.00;99415.38;5036678;28;20029;-84
2023/11/18 08:10:39;;;;;;;0.35;0.35;;;;;;;11.62;100.00;99417.50;5036737;28;20048;-84
2023/11/18 08:13:07;;;;;;;0.40;0.40;;;;;;;11.61;100.00;99415.81;5021651;28;20536;-84
2023/11/18 08:15:42;;;;;;;0.40;0.40;;;;;;;11.61;100.00;99413.13;5054667;28;20032;-84
2023/11/18 08:18:10;;;;;;;0.40;0.40;;;;;;;11.61;100.00;99402.34;5027553;28;20032;-83
2023/11/18 08:20:35;;;;;;;0.40;0.40;;;;;;;11.62;100.00;99410.25;5008171;28;20123;-84
2023/11/18 08:23:01;;;;;;;0.30;0.30;;;;;;;11.64;100.00;99407.31;5036767;28;20112;-84
2023/11/18 08:25:26;;;;;;;0.40;0.40;;;;;;;11.71;100.00;99421.56;5036677;28;20170;-84
2023/11/18 08:27:52;;;;;;;0.30;0.30;;;;;;;11.77;100.00;99414.50;5036393;28;20387;-84
2023/11/18 08:30:18;;;;;;;0.32;0.32;;;;;;;11.80;100.00;99406.81;5036493;28;20040;-84
2023/11/18 08:32:45;;;;;;;0.40;0.40;;;;;;;11.95;100.00;99419.19;5036211;28;20037;-84
2023/11/18 08:35:14;;;;;;;0.40;0.40;;;;;;;11.97;100.00;99419.78;5019943;28;20119;-84
2023/11/18 08:37:40;;;;;;;0.30;0.30;;;;;;;12.02;100.00;99412.72;5052681;28;20025;-84
2023/11/18 08:40:20;;;;;;;0.32;0.32;;;;;;;12.02;100.00;99403.81;5052899;28;20422;-84
2023/11/18 08:42:49;;;;;;;0.30;0.30;;;;;;;12.04;100.00;99401.69;5038284;28;20033;-85
2023/11/18 08:45:21;;;;;;;0.30;0.30;;;;;;;12.06;100.00;99397.75;5053567;28;20039;-85
2023/11/18 08:47:48;;;;;;;0.30;0.30;;;;;;;12.06;100.00;99410.38;5036315;28;20029;-85
2023/11/18 08:50:16;;;;;;;0.40;0.40;;;;;;;12.04;100.00;99416.00;5036525;28;20036;-84
2023/11/18 08:52:47;;;;;;;0.30;0.30;;;;;;;11.95;100.00;99408.41;5003869;28;20037;-85
2023/11/18 08:55:21;;;;;;;0.30;0.30;;;;;;;11.98;100.00;99413.34;5019899;28;20036;-85
2023/11/18 08:57:59;;;;;;;0.40;0.40;;;;;;;11.97;100.00;99409.84;5052786;28;20044;-84
2023/11/18 09:03:24;;;;;;;0.32;0.32;;;;;;;12.02;100.00;99414.59;5038679;28;20383;-84
2023/11/18 09:05:56;;;;;;;0.30;0.30;;;;;;;12.00;100.00;99412.09;5020687;28;20039;-85
2023/11/18 09:08:36;;;;;;;0.30;0.30;;;;;;;11.99;100.00;99412.34;5036173;28;20179;-85
2023/11/18 09:11:04;;;;;;;0.40;0.40;;;;;;;12.02;100.00;99425.34;5036133;28;20032;-85
2023/11/18 09:13:31;;;;;;;0.30;0.30;;;;;;;12.03;100.00;99430.50;5035967;28;20493;-84
2023/11/18 09:16:03;;;;;;;0.40;0.40;;;;;;;12.11;100.00;99429.44;5052243;28;20031;-85
2023/11/18 09:18:33;;;;;;;0.30;0.30;;;;;;;12.14;100.00;99434.38;5035994;28;20490;-85
2023/11/18 09:21:00;;;;;;;0.40;0.40;;;;;;;12.18;100.00;99442.88;5052396;28;20028;-85
2023/11/18 09:23:27;;;;;;;0.40;0.40;;;;;;;12.21;100.00;99443.25;5019667;28;20043;-84
2023/11/18 09:25:53;;;;;;;0.40;0.40;;;;;;;12.19;100.00;99450.72;5019402;28;20033;-84
2023/11/18 09:28:20;;;;;;;0.40;0.40;;;;;;;12.20;100.00;99444.28;5019520;28;20131;-84
2023/11/18 09:30:57;;;;;;;0.30;0.30;;;;;;;12.19;100.00;99448.03;5052220;28;20071;-84
2023/11/18 09:33:33;;;;;;;0.30;0.30;;;;;;;12.24;100.00;99455.47;5022015;28;20060;-84
2023/11/18 09:36:12;;;;;;;0.30;0.30;;;;;;;12.28;100.00;99457.50;5018763;28;20044;-84
2023/11/18 09:38:40;;;;;;;0.38;0.38;;;;;;;12.30;100.00;99460.81;5052009;28;20032;-85
2023/11/18 09:41:10;;;;;;;0.30;0.30;;;;;;;12.30;100.00;99470.75;5021710;28;20041;-85
2023/11/18 09:43:45;;;;;;;0.40;0.40;;;;;;;12.31;100.00;99470.53;5055269;28;20490;-85
2023/11/18 09:46:14;;;;;;;0.40;0.40;;;;;;;12.32;100.00;99471.34;5054938;28;20025;-84
2023/11/18 09:48:59;;;;;;;0.40;0.40;;;;;;;12.30;100.00;99459.97;5022444;28;20124;-84
2023/11/18 09:51:29;;;;;;;0.40;0.40;;;;;;;12.28;100.00;99470.97;5040335;28;20472;-84
2023/11/18 09:54:01;;;;;;;0.40;0.40;;;;;;;12.28;100.00;99472.84;5056137;28;20034;-86
2023/11/18 09:56:57;;;;;;;0.30;0.30;;;;;;;12.28;100.00;99472.84;5039451;28;20037;-85
2023/11/18 09:59:35;;;;;;;0.43;0.43;;;;;;;12.22;100.00;99471.81;5056038;28;20510;-85
2023/11/18 10:02:04;;;;;;;0.40;0.40;;;;;;;12.25;100.00;99482.19;5022779;28;20480;-85
2023/11/18 10:04:31;;;;;;;0.40;0.40;;;;;;;12.27;100.00;99480.09;5054667;28;20025;-85
2023/11/18 10:06:58;;;;;;;0.40;0.40;;;;;;;12.33;100.00;99478.38;5039581;28;20036;-84
2023/11/18 10:09:39;;;;;;;0.40;0.40;;;;;;;12.32;100.00;99491.03;5056080;28;20067;-90
2023/11/18 10:12:07;;;;;;;0.40;0.40;;;;;;;12.35;100.00;99480.88;5024722;28;20029;-85
2023/11/18 10:14:39;;;;;;;0.30;0.30;;;;;;;12.42;100.00;99497.84;5023617;28;20032;-90
2023/11/18 10:17:09;;;;;;;0.40;0.40;;;;;;;12.43;100.00;99500.28;5039691;28;20035;-89
2023/11/18 10:19:50;;;;;;;0.30;0.30;;;;;;;12.41;100.00;99502.41;5040103;28;20037;-89
2023/11/18 10:22:29;;;;;;;0.50;0.50;;;;;;;12.36;100.00;99496.00;5056332;28;20057;-89
2023/11/18 10:25:00;;;;;;;0.30;0.30;;;;;;;12.32;100.00;99501.81;5055878;28;20032;-88
2023/11/18 10:27:28;;;;;;;0.40;0.40;;;;;;;12.26;100.00;99499.19;5022790;28;20052;-89
2023/11/18 10:30:18;;;;;;;0.40;0.40;;;;;;;12.28;100.00;99495.22;5023116;28;20029;-89
2023/11/18 10:33:05;;;;;;;0.45;0.45;;;;;;;12.27;100.00;99490.03;5026272;28;20033;-88
2023/11/18 10:35:33;;;;;;;0.32;0.32;;;;;;;12.20;100.00;99508.13;5056369;28;20479;-90
2023/11/18 10:38:04;;;;;;;0.40;0.40;;;;;;;12.09;100.00;99494.31;5041098;28;20033;-88
2023/11/18 10:40:38;;;;;;;0.40;0.40;;;;;;;11.97;100.00;99501.44;5056267;28;20036;-89
2023/11/18 10:43:09;;;;;;;0.30;0.30;;;;;;;11.92;100.00;99500.44;5023343;28;20056;-90
2023/11/18 10:45:38;;;;;;;0.40;0.40;;;;;;;11.92;100.00;99497.72;5055918;28;20029;-87
2023/11/18 10:48:08;;;;;;;0.40;0.40;;;;;;;11.90;100.00;99494.41;5022915;28;20120;-90
2023/11/18 10:50:34;;;;;;;0.43;0.43;;;;;;;11.97;100.00;99496.03;5038455;28;20382;-88
2023/11/18 10:53:11;;;;;;;0.40;0.40;;;;;;;11.99;100.00;99499.34;5055739;28;20033;-89
2023/11/18 10:55:43;;;;;;;0.40;0.40;;;;;;;11.91;100.00;99490.69;5056053;28;20474;-89
2023/11/18 10:58:09;;;;;;;0.50;0.50;;;;;;;12.00;100.00;99506.38;5055810;28;20439;-89
2023/11/18 11:00:55;;;;;;;0.45;0.45;;;;;;;12.01;100.00;99504.50;5023063;28;20036;-90
2023/11/18 11:03:24;;;;;;;0.43;0.43;;;;;;;12.06;100.00;99507.38;5058958;28;20475;-90
2023/11/18 11:05:52;;;;;;;0.50;0.50;;;;;;;12.07;100.00;99495.59;5069776;28;20029;-88
2023/11/18 11:08:18;;;;;;;0.40;0.40;;;;;;;12.13;100.00;99497.41;5041112;28;20041;-88
2023/11/18 11:11:03;;;;;;;0.50;0.50;;;;;;;12.22;100.00;99506.88;5067354;28;20037;-90
2023/11/18 11:13:29;;;;;;;8.40;1.75;;;;;;;12.22;100.00;99487.19;5041097;28;20356;-89
2023/11/18 11:15:58;;;;;;;7.45;1.45;;;;;;;12.17;100.00;99495.94;5056750;28;20118;-90
2023/11/18 11:18:27;;;;;;;13.60;2.47;;;;;;;12.14;100.00;99488.25;5039784;28;20360;-89
2023/11/18 11:21:29;;;;;;;11.38;2.05;;;;;;;12.03;100.00;99484.38;5039006;28;20095;-90
2023/11/18 11:24:01;;;;;;;12.55;2.17;;;;;;;12.01;100.00;99496.44;5002188;28;20033;-88
2023/11/18 11:26:38;;;;;;;9.13;1.88;;;;;;;12.05;100.00;99484.19;5035620;28;20041;-90
2023/11/18 11:29:14;;;;;;;15.02;2.85;;;;;;;12.24;100.00;99491.31;5057041;28;20029;-89
2023/11/18 11:31:41;;;;;;;3.22;1.48;;;;;;;12.47;100.00;99492.63;5040161;28;20426;-89
2023/11/18 11:34:20;;;;;;;13.35;3.22;;;;;;;12.59;100.00;99485.44;5022949;28;20045;-88